Flight Track Log - Related Links

Times and Time Zones

All times are in EDT time to prevent confusion due to time zone crossing. See the SWA419 flight status page for this flight to view local times or setup timezone preferences in your user account.


Time Position Orientation Groundspeed Altitude Reporting Facility
EDT Latitude Longitude Course Direction KTS MPH feet Rate Location/Type
Fri 12:24:32 PM 43.6428 -70.2653 184° South 163 188 1,900  Level Boston Center
Fri 12:25:32 PM 43.5969 -70.2697 184° South 155 178 4,500 2,800 Climbing Boston Center
Fri 12:26:32 PM 43.5356 -70.3378 219° Southwest 185 213 7,500 2,800 Climbing Boston Center
Fri 12:27:32 PM 43.4742 -70.4000 216° Southwest 288 331 10,100 3,250 Climbing Boston Center
Fri 12:28:32 PM 43.3944 -70.4828 217° Southwest 325 374 14,000 3,550 Climbing Boston Center
Fri 12:29:32 PM 43.3144 -70.5653 217° Southwest 346 398 17,200 2,800 Climbing Boston Center
Fri 12:30:32 PM 43.2406 -70.6389 216° Southwest 368 423 19,600 2,700 Climbing Boston Center
Fri 12:31:32 PM 43.1503 -70.7297 216° Southwest 381 438 22,600 2,600 Climbing Boston Center
Fri 12:32:32 PM 43.0492 -70.8036 208° Southwest 401 461 24,800 2,050 Climbing Boston Center
Fri 12:33:32 PM 42.9378 -70.8803 207° Southwest 428 493 26,700 1,958 Climbing Boston Center
Fri 12:34:56 PM 42.7683 -70.9892 205° Southwest 470 541 29,500 2,417 Climbing Boston Center
Fri 12:35:56 PM 42.6442 -71.0514 200° South 480 552 32,500 1,500 Climbing Boston Center
Fri 12:37:00 PM 42.5375 -71.0982 198° South  Level FlightAware Approximate
Fri 12:37:56 PM 42.4186 -71.2028 198° South 470 541 34,000  Level Boston Center
Fri 12:38:56 PM 42.3514 -71.3558 239° Southwest 450 518 34,000  Level Boston Center
Fri 12:39:56 PM 42.2839 -71.5056 239° Southwest 463 533 34,000  Level Boston Center
Fri 12:41:08 PM 42.2142 -71.6469 236° Southwest 469 540 34,000  Level Boston Center
Fri 12:42:08 PM 42.1319 -71.8242 238° Southwest 469 540 34,000  Level Boston Center
Fri 12:43:08 PM 42.0617 -71.9703 237° Southwest 464 534 34,000  Level Boston Center
Fri 12:44:08 PM 41.9914 -72.1161 237° Southwest 464 534 34,000  Level Boston Center
Fri 12:45:08 PM 41.9167 -72.2756 238° Southwest 469 540 34,000  Level Boston Center
Fri 12:46:08 PM 41.8461 -72.4233 237° Southwest 469 540 34,000  Level Boston Center
Fri 12:47:08 PM 41.7772 -72.5681 237° Southwest 469 540 34,000  Level Boston Center
Fri 12:48:08 PM 41.7081 -72.7097 237° Southwest 469 540 34,000  Level Boston Center
Fri 12:49:08 PM 41.6389 -72.8567 238° Southwest 464 534 34,000  Level Boston Center
Fri 12:50:08 PM 41.5694 -72.9978 237° Southwest 464 534 34,000 -226 Level Boston Center
Fri 12:51:47 PM 41.4656 -73.2103 237° Southwest 453 521 33,400 -566 Descending New York Center
Fri 12:52:47 PM 41.3958 -73.3544 237° Southwest 458 527 32,500 -712 Descending New York Center
Fri 12:53:45 PM 41.3239 -73.4981 236° Southwest 458 527 32,000 -254 Descending New York Center
Fri 12:54:45 PM 41.2497 -73.6411 235° Southwest 465 535 32,000  Level New York Center
Fri 12:55:45 PM 41.1714 -73.7728 232° Southwest 476 548 32,000  Level New York Center
Fri 12:56:46 PM 41.0908 -73.9097 232° Southwest 476 548 32,000  Level New York Center
Fri 12:57:46 PM 41.0122 -74.0433 232° Southwest 471 542 32,000  Level New York Center
Fri 12:58:45 PM 40.9183 -74.1872 229° Southwest 471 542 32,000 -1,311 Level New York Center
Fri 12:59:45 PM 40.8353 -74.3228 231° Southwest 477 549 29,400 -1,983 Descending New York Center
Fri 01:00:46 PM 40.7583 -74.4558 233° Southwest 477 549 28,000 -942 Descending New York Center
Fri 01:01:46 PM 40.6975 -74.5947 240° Southwest 448 516 27,500 -744 Descending New York Center
Fri 01:02:47 PM 40.6717 -74.7467 257° West 438 504 26,500 -1,059 Descending New York Center
Fri 01:03:45 PM 40.6131 -74.8828 240° Southwest 438 504 25,400 -1,563 Descending New York Center
Fri 01:04:46 PM 40.5256 -74.9947 224° Southwest 435 501 23,400 -1,983 Descending New York Center
Fri 01:05:46 PM 40.4422 -75.1097 226° Southwest 441 507 21,400 -1,983 Descending New York Center
Fri 01:06:47 PM 40.3533 -75.2050 219° Southwest 428 493 19,400 -1,729 Descending New York Center
Fri 01:07:44 PM 40.2731 -75.2894 219° Southwest 420 483 18,000 -706 Descending New York Center
Fri 01:08:46 PM 40.1772 -75.3947 220° Southwest 410 472 18,000  Level New York Center
Fri 01:09:46 PM 40.0900 -75.4867 219° Southwest 410 472 18,000  Level New York Center
Fri 01:10:47 PM 40.0031 -75.5783 219° Southwest 410 472 18,000  Level New York Center
Fri 01:11:47 PM 39.9264 -75.6650 221° Southwest 410 472 18,000  Level New York Center
Fri 01:12:44 PM 39.8544 -75.7925 234° Southwest 410 472 18,000 -915 Level New York Center
Fri 01:13:45 PM 39.7975 -75.9019 236° Southwest 410 472 16,200 -1,904 Descending New York Center
Fri 01:16:12 PM 39.6500 -76.2000 237° Southwest 359 413 11,400 -1,681 Descending Potomac TRACON
Fri 01:17:12 PM 39.6000 -76.3000 237° Southwest 350 403 10,400 -850 Descending Potomac TRACON
Fri 01:18:12 PM 39.5500 -76.4000 237° Southwest 312 359 9,700 -843 Descending Potomac TRACON
Fri 01:19:13 PM 39.5167 -76.5000 247° West 309 356 8,700 -992 Descending Potomac TRACON
Fri 01:20:13 PM 39.4667 -76.6000 237° Southwest 303 349 7,700 -1,300 Descending Potomac TRACON
Fri 01:21:13 PM 39.4167 -76.6833 232° Southwest 303 349 6,100 -1,388 Descending Potomac TRACON
Fri 01:22:14 PM 39.3667 -76.7500 226° Southwest 281 323 4,900 -1,240 Descending Potomac TRACON
Fri 01:23:14 PM 39.3000 -76.8167 218° Southwest 270 311 3,600 -1,100 Descending Potomac TRACON
Fri 01:24:14 PM 39.2333 -76.8000 169° South 229 264 2,700 -992 Descending Potomac TRACON
Fri 01:25:15 PM 39.1833 -76.7667 153° Southeast 179 206 1,600 -1,082 Descending Potomac TRACON

Login

Don't have an account? Register now (free) for customized features, flight alerts, and more!